Skip Navigation LinksHome page > Tools > METAR decoder Skip Navigation Links

METAR decoder

Settings

METAR

Chicago O'Hare Intl, Chicago

For information only: do not use for flight planning or navigation.
Latest weather
Observation time Tuesday, September 27, 2016 11:51 AM CDT
Local time Tuesday, September 27, 2016 12:22 PM CDT
Flight conditions Visual Meteorological Conditions
Winds
Wind direction West-Southwest (250°)
Wind speed 25 mph
Wind gusting to 33 mph
Peak wind speed 37 mph, 11:16 AM
Peak wind direction West (260°)
Visibility 10 mi.
Sky condition
Ceiling unlimited
Cloud layer few clouds 5,000 ft.
Cloud layer few clouds 25,000 ft.
Temperature 66°F
Dewpoint 32°F
Altimeter 29.78 in.Hg
Derived measurements
Relative humidity 28%
Density altitude 1383 ft.
Sea-level pressure 29.78 in.Hg
Remarks
Automated weather observing station with precipitation discriminator.
METAR KORD 271651Z 25022G29KT 10SM FEW050 FEW250 19/00 A2978 RMK AO2 PK WND 26032/1616 SLP083 T01890000

InnerDrive.Weather 4.0.5722.1 Release CLR 4.0.30319.34209
Copyright ©2015 Inner Drive Technology. All rights reserved. Portions Copyright ©1986-2015 David Braverman.

Find weather

Site navigation


Skip Navigation Links

Place info

Page info

PayPal - The safer, easier way to pay online!

Return home.

Copyright ©2016 Inner Drive Technology. Purveyors of fine, hand-crafted computer software. Page printed 2016-09-27T17:22:02 UTC.